CERCS-SANT JORDI (Berguèdà)





Hora UTC 22:10
Temperatura 23.0 ºC
Humedad 67.3 %
Presión 1017.9 hPa
Pluja 0.0 mm
Velocidad viento 0.6 km/h
Dirección viento SSW
Radiación solar 0.1 W/m²

Datos diarios 2024-07-24



Hora UTC (invierno +1h; verano +2h)
Temperatura (ºC) Humedad (%) Presión (hPa) Velocidad viento (km/h) Precipitación (mm) Radiación solar (W/m²)
Hora UTC Aire Humedad Presión Vel. Dir. Vel. Max Dir. Intent. máx 5 min. Rad. Sol.
00:05 22.2 71.2 1021.7 2.3 NE 2.3 NE 0.0 0.1
00:10 22.1 71.6 1021.7 0.0 NNE 0.0 ENE 0.0 0.2
00:15 21.7 73.5 1021.6 0.1 SSW 3.4 SSW 0.0 0.1
00:20 21.6 73.7 1021.6 0.0 NNE 0.0 SSW 0.0 0.1
00:25 21.6 73.6 1021.6 0.3 NE 3.4 NE 0.0 0.1
00:30 21.7 73.6 1021.6 0.1 NE 3.4 NNE 0.0 0.1
00:35 21.7 72.9 1021.6 0.0 NNE 0.0 NE 0.0 0.2
00:40 21.4 74.6 1021.6 0.4 SW 3.4 SW 0.0 0.1
00:45 21.3 75.5 1021.6 0.0 NNE 0.0 SW 0.0 0.1
00:50 21.3 75.7 1021.5 0.0 NNE 0.0 S 0.0 0.1
00:55 21.3 75.5 1021.6 0.0 NNE 0.0 SW 0.0 0.2
01:00 21.5 73.7 1021.6 0.5 NNE 6.1 NNE 0.0 0.2
01:05 21.6 72.9 1021.6 1.4 NNE 8.8 N 0.0 0.2
01:10 21.6 73.0 1021.6 0.5 WNW 6.1 NW 0.0 0.2
01:15 21.4 74.7 1021.5 0.4 SW 6.1 SW 0.0 0.2
01:20 21.2 76.0 1021.5 0.9 WSW 6.1 WSW 0.0 0.1
01:25 21.1 76.1 1021.5 0.0 NNE 0.0 N 0.0 0.1
01:30 21.2 75.7 1021.4 0.0 NNE 0.0 N 0.0 0.2
01:35 21.0 76.1 1021.4 0.0 NNE 0.0 N 0.0 0.1
01:40 21.1 75.3 1021.3 0.4 NE 6.1 ENE 0.0 0.2
01:45 20.8 76.6 1021.2 0.0 NNE 0.0 SSW 0.0 0.2
01:50 20.8 76.7 1021.2 0.0 NNE 0.0 SW 0.0 0.2
01:55 20.7 76.9 1021.1 0.0 NNE 0.0 SW 0.0 0.2
02:00 20.8 76.5 1021.1 0.2 NE 6.1 NE 0.0 0.1
02:05 20.7 76.8 1021.0 0.0 NNE 0.0 N 0.0 0.2
02:10 20.5 77.6 1021.0 0.0 NNE 0.0 WSW 0.0 0.1
02:15 20.5 77.8 1020.9 0.0 NNE 0.0 WSW 0.0 0.1
02:20 20.5 77.3 1020.9 0.0 NNE 0.0 WSW 0.0 0.2
02:25 20.4 77.4 1020.9 0.0 NNE 0.0 ENE 0.0 0.1
02:30 20.4 77.5 1020.8 0.0 NNE 0.0 NNW 0.0 0.2
02:35 20.3 78.0 1020.8 0.9 SSW 6.1 SSW 0.0 0.1
02:40 20.0 79.3 1020.8 0.0 NNE 0.0 S 0.0 0.2
02:45 20.0 79.3 1020.8 0.4 ENE 3.4 ENE 0.0 0.2
02:50 20.2 78.0 1020.8 2.0 ENE 6.1 ENE 0.0 0.2
02:55 20.3 77.3 1020.8 0.9 ENE 6.1 ENE 0.0 0.2
03:00 20.3 77.3 1020.8 1.0 NNE 6.1 NE 0.0 0.1
03:05 20.1 78.1 1020.8 0.0 NNE 0.0 WSW 0.0 0.2
03:10 20.0 78.9 1020.8 0.0 NNE 0.0 SSW 0.0 0.1
03:15 19.9 79.1 1020.7 0.2 NE 6.1 NE 0.0 0.2
03:20 20.1 78.3 1020.7 0.7 NE 6.1 NE 0.0 0.1
03:25 20.1 78.3 1020.7 0.0 NNE 0.0 N 0.0 0.1
03:30 20.0 78.9 1020.7 0.0 NNE 0.0 NW 0.0 0.2
03:35 19.8 79.4 1020.7 0.0 NNE 0.0 WSW 0.0 0.2
03:40 19.8 79.8 1020.7 0.0 NNE 0.0 SSE 0.0 0.2
03:45 19.8 79.5 1020.7 0.0 NNE 0.0 NNW 0.0 0.1
03:50 19.7 79.3 1020.7 0.0 NNE 0.0 WSW 0.0 0.2
03:55 19.6 79.5 1020.7 0.0 NNE 0.0 WSW 0.0 0.1
04:00 19.6 79.9 1020.7 0.0 NNE 0.0 WSW 0.0 0.2
04:05 19.5 80.4 1020.8 0.1 S 3.4 S 0.0 0.1
04:10 19.4 80.8 1020.8 0.0 NNE 0.0 W 0.0 0.2
04:15 19.4 80.8 1020.8 0.0 NNE 0.0 SSW 0.0 0.3
04:20 19.4 80.8 1020.8 0.0 NNE 0.0 SSE 0.0 0.5
04:25 19.4 81.0 1020.8 0.0 NNE 0.0 WSW 0.0 1.2
04:30 19.4 81.2 1020.7 0.5 NNE 6.1 ENE 0.0 2.0
04:35 19.4 81.3 1020.7 2.0 NW 6.1 W 0.0 3.3
04:40 19.5 81.0 1020.7 1.4 WNW 6.1 W 0.0 4.8
04:45 19.6 80.5 1020.7 0.8 WSW 6.1 SSW 0.0 6.3
04:50 19.7 79.9 1020.7 2.8 NNW 11.5 NNW 0.0 8.1
04:55 19.9 78.9 1020.7 3.6 WNW 11.5 WNW 0.0 9.9
05:00 20.0 78.5 1020.7 4.0 WNW 11.5 NW 0.0 11.6
05:05 20.0 78.3 1020.7 2.0 SSW 6.1 NW 0.0 13.5
05:10 19.7 79.7 1020.7 0.6 S 6.1 SSW 0.0 14.9
05:15 19.6 80.0 1020.6 1.3 NW 11.5 N 0.0 16.7
05:20 19.9 78.8 1020.6 2.1 N 8.8 WNW 0.0 18.3
05:25 20.1 77.4 1020.6 2.3 NNW 8.8 NNW 0.0 19.8
05:30 20.2 76.8 1020.6 3.9 NNW 11.5 N 0.0 21.6
05:35 20.4 76.2 1020.6 6.6 NNW 14.2 WNW 0.0 72.8
05:40 20.8 74.2 1020.6 2.7 NNE 11.5 ENE 0.0 105.2
05:45 21.3 72.2 1020.6 4.3 NNE 16.9 ENE 0.0 109.3
05:50 21.6 71.3 1020.6 4.8 NNW 11.5 NE 0.0 130.1
05:55 21.8 70.7 1020.6 6.5 NNW 16.9 NNW 0.0 141.1
06:00 22.1 69.6 1020.6 4.2 N 14.2 NW 0.0 138.7
06:05 22.4 68.6 1020.6 3.7 NNE 8.8 NE 0.0 163.8
06:10 22.4 68.2 1020.6 5.5 NNE 14.2 N 0.0 177.1
06:15 22.5 67.7 1020.6 4.5 NNE 14.2 W 0.0 187.3
06:20 22.7 67.2 1020.6 4.5 N 14.2 W 0.0 113.2
06:25 22.9 66.3 1020.6 4.8 NNE 14.2 NNW 0.0 79.9
06:30 23.1 65.8 1020.6 4.5 NNE 14.2 NNE 0.0 65.9
06:35 23.2 65.6 1020.6 6.6 NNE 11.5 NE 0.0 107.9
06:40 23.2 65.6 1020.6 5.1 NNE 14.2 NNE 0.0 150.3
06:45 23.3 65.3 1020.6 7.4 NNE 11.5 NE 0.0 238.2
06:50 23.2 65.9 1020.6 6.6 NNE 14.2 NNE 0.0 232.8
06:55 23.2 65.9 1020.5 6.8 NNE 11.5 NE 0.0 87.2
07:00 23.1 66.1 1020.5 7.6 NE 14.2 NE 0.0 118.1
07:05 23.4 65.8 1020.5 3.8 NE 11.5 NNE 0.0 43.5
07:10 23.9 64.2 1020.6 1.9 ENE 6.1 ESE 0.0 45.4
07:15 24.2 63.1 1020.6 1.0 ENE 6.1 ESE 0.0 45.8
07:20 24.2 62.7 1020.6 2.9 NE 6.1 NE 0.0 44.8
07:25 24.1 63.4 1020.5 1.7 E 8.8 ENE 0.0 48.8
07:30 24.3 62.7 1020.5 3.8 ENE 6.1 E 0.0 46.7
07:35 24.5 61.7 1020.6 1.6 ENE 6.1 SE 0.0 46.8
07:40 24.7 61.0 1020.6 1.2 ENE 6.1 ENE 0.0 47.9
07:45 24.9 60.5 1020.6 0.5 ESE 6.1 SSE 0.0 48.4
07:50 25.1 59.7 1020.5 1.7 E 8.8 E 0.0 49.0
07:55 25.3 58.8 1020.5 4.3 E 11.5 ESE 0.0 55.8
08:00 25.4 58.4 1020.5 4.2 E 8.8 SE 0.0 60.6
08:05 25.6 58.5 1020.4 3.3 SE 8.8 ESE 0.0 51.4
08:10 26.0 57.2 1020.4 3.7 ESE 8.8 N 0.0 52.6
08:15 26.2 56.9 1020.3 3.9 ESE 11.5 SE 0.0 54.4
08:20 26.4 56.3 1020.3 3.1 ESE 11.5 ESE 0.0 75.6
08:25 26.3 55.5 1020.2 5.4 E 11.5 E 0.0 235.8
08:30 26.2 54.6 1020.2 6.0 E 11.5 ESE 0.0 523.6
08:35 26.5 54.6 1020.2 2.6 SSE 11.5 SE 0.0 554.5
08:40 27.0 53.2 1020.1 3.9 SE 11.5 SE 0.0 566.1
08:45 27.6 50.6 1020.1 4.2 SE 14.2 SSW 0.0 578.5
08:50 28.1 48.3 1020.1 3.9 SE 11.5 SSE 0.0 591.1
08:55 28.4 47.4 1020.0 4.0 ESE 11.5 SE 0.0 603.2
09:00 28.2 46.1 1020.0 5.4 ESE 14.2 E 0.0 613.5
09:05 28.0 46.5 1020.0 4.4 ESE 11.5 ENE 0.0 624.0
09:10 28.1 45.8 1019.9 4.9 E 11.5 SE 0.0 635.6
09:15 28.2 44.9 1019.9 6.6 ESE 14.2 E 0.0 644.4
09:20 28.4 44.9 1019.9 3.5 ESE 11.5 ENE 0.0 652.9
09:25 29.0 43.1 1019.8 4.5 ESE 11.5 E 0.0 662.7
09:30 28.9 43.4 1019.8 4.8 ESE 11.5 ESE 0.0 670.9
09:35 29.1 43.3 1019.7 5.0 ESE 11.5 ESE 0.0 680.4
09:40 29.2 42.6 1019.7 4.6 ESE 11.5 SE 0.0 689.6
09:45 29.2 42.6 1019.7 5.8 ESE 11.5 ENE 0.0 697.6
09:50 29.3 43.2 1019.6 5.4 ESE 16.9 ESE 0.0 705.9
09:55 29.8 42.6 1019.6 5.7 ESE 16.9 SE 0.0 715.3
10:00 30.1 42.4 1019.6 5.2 SE 11.5 ESE 0.0 723.4
10:05 30.7 41.1 1019.5 6.3 SSE 16.9 SSE 0.0 732.6
10:10 30.8 40.3 1019.5 5.1 ESE 11.5 ESE 0.0 736.4
10:15 30.8 40.0 1019.4 6.0 ESE 16.9 NE 0.0 744.3
10:20 31.0 39.9 1019.3 5.3 ESE 14.2 SE 0.0 749.4
10:25 31.2 38.9 1019.3 5.9 ESE 16.9 ESE 0.0 756.1
10:30 31.0 39.9 1019.3 9.0 SE 19.6 SSE 0.0 762.9
10:35 31.3 39.1 1019.3 7.8 SSE 16.9 SSW 0.0 768.7
10:40 31.4 38.2 1019.2 5.9 SE 14.2 SE 0.0 775.9
10:45 31.1 38.6 1019.2 6.8 ESE 16.9 SSE 0.0 782.9
10:50 31.2 37.5 1019.2 8.2 SSE 19.6 SE 0.0 788.9
10:55 31.5 37.3 1019.2 4.7 SE 14.2 SE 0.0 794.2
11:00 31.6 36.1 1019.1 6.0 SE 14.2 S 0.0 798.9
11:05 31.6 36.0 1019.1 7.2 SE 16.9 SSE 0.0 802.0
11:10 31.8 35.6 1019.0 6.4 SE 22.3 SE 0.0 806.0
11:15 32.0 35.5 1019.0 7.3 SE 16.9 S 0.0 809.0
11:20 32.3 34.8 1019.0 6.3 ESE 16.9 ESE 0.0 811.0
11:25 32.1 34.6 1019.0 6.8 E 16.9 ESE 0.0 815.0
11:30 31.5 35.7 1018.9 6.9 ESE 16.9 SE 0.0 816.0
11:35 31.8 35.4 1018.9 7.0 ESE 25.0 ESE 0.0 818.0
11:40 31.8 35.2 1018.8 7.5 ESE 14.2 ENE 0.0 820.0
11:45 32.4 34.6 1018.7 7.0 ESE 22.3 E 0.0 822.0
11:50 32.4 33.9 1018.6 7.2 E 19.6 SE 0.0 824.0
11:55 32.5 33.6 1018.6 6.1 ESE 14.2 SE 0.0 825.0
12:00 32.3 34.0 1018.5 7.7 SE 19.6 S 0.0 830.0
12:05 32.7 33.2 1018.4 5.6 ESE 14.2 SE 0.0 828.0
12:10 32.8 32.8 1018.3 8.1 ESE 19.6 ESE 0.0 829.0
12:15 32.6 33.0 1018.2 7.1 ESE 19.6 NE 0.0 834.0
12:20 32.8 33.2 1018.2 8.3 SE 22.3 SE 0.0 834.0
12:25 33.2 32.6 1018.1 5.3 SE 14.2 SE 0.0 843.0
12:30 33.4 32.2 1018.0 5.8 SE 22.3 SE 0.0 835.0
12:35 33.7 32.2 1018.0 7.7 SE 22.3 ESE 0.0 839.0
12:40 33.5 32.0 1018.0 5.8 SE 16.9 SE 0.0 850.0
12:45 34.0 31.7 1017.9 7.8 ESE 19.6 SE 0.0 855.0
12:50 34.5 31.2 1017.8 4.7 ESE 14.2 SE 0.0 777.2
12:55 34.7 31.0 1017.8 8.9 SSE 19.6 ESE 0.0 834.0
13:00 34.6 31.3 1017.8 5.9 SE 14.2 SSW 0.0 834.0
13:05 34.7 30.8 1017.7 5.5 SE 16.9 S 0.0 800.0
13:10 34.6 30.6 1017.7 6.7 ESE 19.6 SE 0.0 813.0
13:15 34.1 30.8 1017.6 5.8 E 16.9 ESE 0.0 737.1
13:20 34.2 31.0 1017.5 6.5 ESE 16.9 ESE 0.0 784.5
13:25 34.7 30.1 1017.5 3.7 ESE 14.2 SE 0.0 769.9
13:30 34.7 29.7 1017.4 4.8 E 14.2 ENE 0.0 675.8
13:35 34.6 30.2 1017.3 5.9 SE 14.2 ESE 0.0 776.0
13:40 35.1 29.9 1017.3 4.5 SSE 14.2 S 0.0 709.9
13:45 35.3 28.9 1017.3 5.8 SE 19.6 SSE 0.0 583.6
13:50 34.9 29.0 1017.3 6.6 SE 16.9 SSE 0.0 540.4
13:55 34.6 29.4 1017.2 6.2 ESE 16.9 ESE 0.0 777.2
14:00 34.8 28.6 1017.1 7.5 SE 25.0 SE 0.0 772.9
14:05 35.1 28.4 1017.0 4.9 SE 14.2 SE 0.0 591.2
14:10 35.3 28.6 1016.9 2.9 SE 11.5 SE 0.0 730.1
14:15 35.7 27.8 1016.9 4.4 ESE 14.2 E 0.0 733.1
14:20 35.3 27.7 1016.9 4.6 ESE 11.5 SE 0.0 724.6
14:25 35.2 27.5 1016.8 5.8 ESE 16.9 ESE 0.0 631.3
14:30 35.2 27.2 1016.8 6.3 ESE 16.9 S 0.0 315.6
14:35 34.6 27.8 1016.8 7.1 SSE 16.9 S 0.0 346.8
14:40 34.3 28.2 1016.7 6.2 SE 22.3 SSE 0.0 656.2
14:45 34.3 28.9 1016.8 9.9 SE 22.3 SSE 0.0 562.7
14:50 34.4 28.8 1016.7 7.1 SSE 19.6 SSE 0.0 445.1
14:55 34.4 29.2 1016.7 6.7 SE 14.2 SE 0.0 578.8
15:00 34.5 29.1 1016.7 6.2 SE 16.9 SE 0.0 638.4
15:05 34.9 28.9 1016.7 9.3 SE 22.3 SSE 0.0 518.0
15:10 34.4 29.1 1016.7 8.4 ESE 16.9 SE 0.0 568.5
15:15 34.1 30.0 1016.6 6.6 SSE 33.1 SSE 0.0 172.8
15:20 33.7 31.4 1016.6 9.6 SSE 19.6 SSE 0.0 382.0
15:25 33.6 32.0 1016.6 7.0 SE 22.3 SSE 0.0 367.2
15:30 33.7 32.2 1016.6 6.2 SE 22.3 SSE 0.0 569.5
15:35 34.3 31.8 1016.5 9.5 SSE 22.3 SSE 0.0 492.0
15:40 34.2 31.9 1016.5 7.4 S 16.9 SSW 0.0 536.5
15:45 34.5 32.5 1016.5 7.3 SE 14.2 SE 0.0 395.1
15:50 34.0 33.5 1016.5 8.3 SE 22.3 SSE 0.0 440.0
15:55 33.9 33.8 1016.6 8.3 SSE 19.6 SE 0.0 502.2
16:00 33.8 33.8 1016.5 8.0 SE 19.6 SSE 0.0 383.7
16:05 33.5 34.3 1016.5 8.2 S 25.0 S 0.0 471.5
16:10 33.4 35.0 1016.5 6.4 S 16.9 SSW 0.0 369.1
16:15 33.6 35.1 1016.5 5.8 S 14.2 ESE 0.0 447.6
16:20 33.8 34.7 1016.5 5.6 SSE 14.2 SSE 0.0 368.4
16:25 33.8 34.1 1016.5 5.4 S 16.9 S 0.0 394.4
16:30 33.5 36.9 1016.6 6.3 ESE 19.6 SE 0.0 154.8
16:35 32.2 41.0 1016.6 7.7 E 25.0 ENE 0.0 301.7
16:40 32.3 41.3 1016.6 4.9 SE 16.9 ESE 0.0 255.8
16:45 32.0 42.1 1016.6 6.2 ESE 16.9 E 0.0 306.0
16:50 32.0 43.1 1016.7 5.2 SE 25.0 SE 0.0 252.8
16:55 31.5 44.2 1016.7 7.2 E 22.3 ENE 0.0 245.5
17:00 31.3 45.3 1016.8 3.9 ESE 11.5 E 0.0 254.6
17:05 31.3 45.8 1016.9 4.8 E 14.2 ENE 0.0 223.2
17:10 31.1 46.3 1016.9 4.7 SE 11.5 SSE 0.0 192.3
17:15 30.9 47.1 1016.9 4.1 S 8.8 S 0.0 188.0
17:20 30.6 47.7 1016.9 3.3 SSE 8.8 SSW 0.0 78.7
17:25 30.3 48.1 1017.0 2.0 SSE 6.1 ENE 0.0 66.2
17:30 29.9 49.4 1017.0 1.7 SSE 8.8 SE 0.0 61.9
17:35 29.6 50.0 1017.0 2.7 SSE 11.5 SE 0.0 54.6
17:40 29.6 49.5 1017.0 1.5 S 8.8 SSW 0.0 108.2
17:45 29.7 50.3 1016.9 1.8 SSE 6.1 SW 0.0 136.8
17:50 29.8 49.7 1016.9 5.2 SSW 14.2 SSW 0.0 59.5
17:55 29.4 50.4 1017.0 2.0 SSW 8.8 SW 0.0 47.2
18:00 29.1 51.8 1017.0 0.9 SSW 6.1 SW 0.0 40.8
18:05 28.9 52.2 1017.1 0.0 NNE 0.0 WSW 0.0 34.3
18:10 28.7 53.1 1017.1 0.8 S 6.1 S 0.0 38.7
18:15 28.7 53.4 1017.1 1.3 ESE 8.8 ESE 0.0 42.0
18:20 28.6 53.5 1017.1 0.0 SSW 3.4 SSW 0.0 44.9
18:25 28.6 53.9 1017.2 0.2 S 3.4 S 0.0 39.5
18:30 28.4 54.4 1017.2 1.7 SW 6.1 NW 0.0 35.0
18:35 28.3 55.2 1017.2 3.9 SSE 11.5 SSE 0.0 29.0
18:40 28.2 56.0 1017.3 2.7 SE 11.5 ESE 0.0 21.9
18:45 28.2 55.8 1017.3 2.4 SE 11.5 E 0.0 18.4
18:50 28.2 56.0 1017.3 1.2 SE 8.8 ENE 0.0 17.1
18:55 28.0 56.6 1017.4 0.4 SSW 3.4 SSE 0.0 12.9
19:00 27.9 57.2 1017.4 0.0 S 3.4 S 0.0 10.1
19:05 27.7 57.9 1017.4 0.0 SW 3.4 WNW 0.0 6.7
19:10 27.4 58.9 1017.4 2.1 SSW 8.8 S 0.0 4.2
19:15 27.2 59.4 1017.5 4.8 SSW 8.8 SSW 0.0 2.9
19:20 27.0 60.0 1017.5 3.5 SSW 11.5 S 0.0 2.1
19:25 26.9 60.0 1017.5 4.3 SSW 11.5 SSW 0.0 1.4
19:30 26.7 60.0 1017.6 3.5 SSW 11.5 S 0.0 0.8
19:35 26.7 58.2 1017.7 2.1 S 8.8 SSE 0.0 0.5
19:40 26.6 58.5 1017.7 2.3 S 8.8 S 0.0 0.2
19:45 26.4 56.5 1017.7 4.4 SSW 11.5 SSW 0.0 0.2
19:50 26.3 56.7 1017.8 2.4 SW 6.1 SW 0.0 0.2
19:55 26.1 56.5 1017.8 1.2 SW 6.1 SSW 0.0 0.2
20:00 25.9 55.5 1017.8 1.3 SW 6.1 SSW 0.0 0.1
20:05 25.8 55.4 1017.8 1.7 WSW 6.1 SSW 0.0 0.3
20:10 25.6 55.5 1017.8 2.4 WSW 6.1 WSW 0.0 0.2
20:15 25.4 56.2 1017.9 3.3 WSW 8.8 SW 0.0 0.2
20:20 25.3 56.6 1017.9 3.1 WSW 6.1 WSW 0.0 0.1
20:25 25.1 57.3 1017.9 0.8 SW 6.1 SW 0.0 0.1
20:30 24.9 58.8 1017.9 2.8 WSW 8.8 WSW 0.0 0.1
20:35 24.7 59.3 1017.9 2.5 SW 6.1 WSW 0.0 0.2
20:40 24.6 59.7 1017.9 1.6 WSW 6.1 SW 0.0 0.1
20:45 24.4 60.3 1017.9 0.3 SW 6.1 SSW 0.0 0.1
20:50 24.2 61.2 1017.9 1.0 SSW 6.1 SW 0.0 0.1
20:55 24.0 61.8 1017.9 1.5 SW 6.1 SW 0.0 0.1
21:00 23.8 62.6 1017.9 2.2 SW 8.8 WSW 0.0 0.1
21:05 23.7 62.8 1017.9 1.4 SSW 6.1 SW 0.0 0.1
21:10 23.7 62.8 1017.9 2.6 SW 8.8 WSW 0.0 0.1
21:15 23.5 63.5 1018.0 0.9 WSW 6.1 W 0.0 0.1
21:20 23.5 63.8 1018.0 1.9 SW 6.1 WSW 0.0 0.1
21:25 23.4 64.4 1018.0 2.6 SW 8.8 SSW 0.0 0.1
21:30 23.3 64.8 1018.0 1.6 SW 6.1 SSW 0.0 0.1
21:35 23.3 65.1 1018.0 3.2 WSW 6.1 SW 0.0 0.1
21:40 23.3 65.2 1017.9 1.2 SW 6.1 WSW 0.0 0.1
21:45 23.2 65.7 1017.9 1.7 SSW 6.1 SSW 0.0 0.1
21:50 23.1 66.1 1017.9 1.1 WSW 6.1 SW 0.0 0.1
21:55 23.2 66.1 1017.9 0.6 WSW 6.1 WSW 0.0 0.1
22:00 23.1 66.4 1017.9 0.1 SSW 3.4 SW 0.0 0.1
22:05 23.1 66.9 1017.9 0.1 S 3.4 SSW 0.0 0.1
22:10 23.0 67.3 1017.9 0.6 SSW 3.4 SSW 0.0 0.1
Máxima 35.9 81.3 1021.7 9.9 SE 33.1 SSE 0.0 855.0
Mínima 19.4 27.2 1016.5
Total 0.0